sensor_id;sensor_type;location;lat;lon;timestamp;pressure;altitude;pressure_sealevel;temperature;humidity
78665;BME280;67981;51.022;-2.870;2023-02-28T00:02:16;102955.56;;;2.45;79.73
78665;BME280;67981;51.022;-2.870;2023-02-28T00:04:43;102962.16;;;2.51;79.43
78665;BME280;67981;51.022;-2.870;2023-02-28T00:07:09;102971.34;;;2.41;79.74
78665;BME280;67981;51.022;-2.870;2023-02-28T00:09:34;102970.28;;;2.47;79.68
78665;BME280;67981;51.022;-2.870;2023-02-28T00:12:00;102971.63;;;2.44;80.05
78665;BME280;67981;51.022;-2.870;2023-02-28T00:14:25;102969.84;;;2.43;80.23
78665;BME280;67981;51.022;-2.870;2023-02-28T00:16:50;102968.50;;;2.38;79.99
78665;BME280;67981;51.022;-2.870;2023-02-28T00:19:16;102971.78;;;2.37;80.70
78665;BME280;67981;51.022;-2.870;2023-02-28T00:21:41;102968.25;;;2.26;80.26
78665;BME280;67981;51.022;-2.870;2023-02-28T00:24:08;102979.91;;;2.33;80.53
78665;BME280;67981;51.022;-2.870;2023-02-28T00:26:33;102982.59;;;2.34;80.25
78665;BME280;67981;51.022;-2.870;2023-02-28T00:28:58;102988.31;;;2.32;80.72
78665;BME280;67981;51.022;-2.870;2023-02-28T00:31:24;102984.72;;;2.30;81.16
78665;BME280;67981;51.022;-2.870;2023-02-28T00:33:49;102982.94;;;2.20;81.41
78665;BME280;67981;51.022;-2.870;2023-02-28T00:36:16;102987.91;;;2.19;80.82
78665;BME280;67981;51.022;-2.870;2023-02-28T00:38:42;102988.06;;;2.20;81.24
78665;BME280;67981;51.022;-2.870;2023-02-28T00:41:08;102977.44;;;2.16;81.03
78665;BME280;67981;51.022;-2.870;2023-02-28T00:43:35;102989.84;;;2.21;81.38
78665;BME280;67981;51.022;-2.870;2023-02-28T00:46:01;102986.13;;;2.09;81.47
78665;BME280;67981;51.022;-2.870;2023-02-28T00:48:27;102985.06;;;2.07;81.89
78665;BME280;67981;51.022;-2.870;2023-02-28T00:50:53;102981.63;;;2.07;81.98
78665;BME280;67981;51.022;-2.870;2023-02-28T00:53:18;102986.44;;;2.04;82.05
78665;BME280;67981;51.022;-2.870;2023-02-28T00:55:44;102990.47;;;2.10;81.38
78665;BME280;67981;51.022;-2.870;2023-02-28T00:58:09;102999.00;;;2.02;82.04
78665;BME280;67981;51.022;-2.870;2023-02-28T01:00:34;102989.88;;;1.96;82.36
78665;BME280;67981;51.022;-2.870;2023-02-28T01:03:00;103003.06;;;2.00;82.27
78665;BME280;67981;51.022;-2.870;2023-02-28T01:05:25;102999.63;;;2.00;82.38
78665;BME280;67981;51.022;-2.870;2023-02-28T01:07:51;103001.72;;;1.95;82.40
78665;BME280;67981;51.022;-2.870;2023-02-28T01:10:16;103000.84;;;1.95;82.62
78665;BME280;67981;51.022;-2.870;2023-02-28T01:12:41;103002.63;;;1.96;82.69
78665;BME280;67981;51.022;-2.870;2023-02-28T01:15:10;102998.72;;;1.91;82.72
78665;BME280;67981;51.022;-2.870;2023-02-28T01:17:36;102995.41;;;1.92;82.81
78665;BME280;67981;51.022;-2.870;2023-02-28T01:20:01;102999.78;;;1.84;83.22
78665;BME280;67981;51.022;-2.870;2023-02-28T01:22:27;102996.31;;;1.84;82.82
78665;BME280;67981;51.022;-2.870;2023-02-28T01:24:52;102994.38;;;1.81;82.71
78665;BME280;67981;51.022;-2.870;2023-02-28T01:27:18;102995.28;;;1.73;83.16
78665;BME280;67981;51.022;-2.870;2023-02-28T01:29:43;103000.09;;;1.62;83.11
78665;BME280;67981;51.022;-2.870;2023-02-28T01:32:09;102995.28;;;1.48;83.81
78665;BME280;67981;51.022;-2.870;2023-02-28T01:34:34;103001.88;;;1.45;84.13
78665;BME280;67981;51.022;-2.870;2023-02-28T01:36:59;102997.25;;;1.41;83.88
78665;BME280;67981;51.022;-2.870;2023-02-28T01:39:26;102997.97;;;1.32;84.79
78665;BME280;67981;51.022;-2.870;2023-02-28T01:41:51;102974.16;;;1.23;84.49
78665;BME280;67981;51.022;-2.870;2023-02-28T01:47:20;102990.16;;;1.13;85.31
78665;BME280;67981;51.022;-2.870;2023-02-28T01:49:47;102996.72;;;1.11;85.26
78665;BME280;67981;51.022;-2.870;2023-02-28T01:52:14;102990.16;;;1.13;85.52
78665;BME280;67981;51.022;-2.870;2023-02-28T01:54:45;102994.19;;;1.03;85.95
78665;BME280;67981;51.022;-2.870;2023-02-28T01:57:19;102990.72;;;1.02;85.53
78665;BME280;67981;51.022;-2.870;2023-02-28T01:59:51;102977.69;;;0.91;85.90
78665;BME280;67981;51.022;-2.870;2023-02-28T02:02:21;102987.44;;;1.03;85.95
78665;BME280;67981;51.022;-2.870;2023-02-28T02:05:10;102992.81;;;1.06;85.85
78665;BME280;67981;51.022;-2.870;2023-02-28T02:07:42;102984.44;;;0.99;85.98
78665;BME280;67981;51.022;-2.870;2023-02-28T02:12:54;102995.06;;;1.03;86.29
78665;BME280;67981;51.022;-2.870;2023-02-28T02:15:35;103001.16;;;0.97;86.44
78665;BME280;67981;51.022;-2.870;2023-02-28T02:18:22;103000.44;;;0.98;86.61
78665;BME280;67981;51.022;-2.870;2023-02-28T02:36:42;102980.34;;;0.84;86.79
78665;BME280;67981;51.022;-2.870;2023-02-28T02:41:52;102969.88;;;0.81;87.35
78665;BME280;67981;51.022;-2.870;2023-02-28T02:44:40;102979.63;;;0.85;87.26
78665;BME280;67981;51.022;-2.870;2023-02-28T02:47:20;102974.50;;;0.76;87.68
78665;BME280;67981;51.022;-2.870;2023-02-28T02:49:51;102975.41;;;0.77;87.73
78665;BME280;67981;51.022;-2.870;2023-02-28T02:52:21;102970.75;;;0.73;87.46
78665;BME280;67981;51.022;-2.870;2023-02-28T02:54:48;102965.97;;;0.67;87.37
78665;BME280;67981;51.022;-2.870;2023-02-28T02:57:33;102955.63;;;0.57;87.82
78665;BME280;67981;51.022;-2.870;2023-02-28T03:00:03;102961.75;;;0.59;88.12
78665;BME280;67981;51.022;-2.870;2023-02-28T03:02:30;102982.44;;;0.71;88.04
78665;BME280;67981;51.022;-2.870;2023-02-28T03:05:01;102980.91;;;0.73;88.10
78665;BME280;67981;51.022;-2.870;2023-02-28T03:07:27;102976.91;;;0.75;87.77
78665;BME280;67981;51.022;-2.870;2023-02-28T03:09:57;102987.50;;;0.71;88.07
78665;BME280;67981;51.022;-2.870;2023-02-28T03:13:00;102974.31;;;0.66;87.96
78665;BME280;67981;51.022;-2.870;2023-02-28T03:15:27;102985.44;;;0.75;87.78
78665;BME280;67981;51.022;-2.870;2023-02-28T03:18:17;102968.34;;;0.66;87.92
78665;BME280;67981;51.022;-2.870;2023-02-28T03:20:56;102973.28;;;0.73;87.55
78665;BME280;67981;51.022;-2.870;2023-02-28T03:23:53;102974.19;;;0.73;87.65
78665;BME280;67981;51.022;-2.870;2023-02-28T03:26:23;102967.59;;;0.67;87.49
78665;BME280;67981;51.022;-2.870;2023-02-28T03:31:38;102989.63;;;0.83;87.33
78665;BME280;67981;51.022;-2.870;2023-02-28T03:34:31;102977.03;;;0.76;87.74
78665;BME280;67981;51.022;-2.870;2023-02-28T03:37:11;102988.47;;;0.88;87.07
78665;BME280;67981;51.022;-2.870;2023-02-28T03:39:49;102985.44;;;0.84;87.34
78665;BME280;67981;51.022;-2.870;2023-02-28T03:42:22;102991.72;;;0.79;87.36
78665;BME280;67981;51.022;-2.870;2023-02-28T03:44:57;102966.59;;;0.73;86.86
78665;BME280;67981;51.022;-2.870;2023-02-28T03:47:41;102986.94;;;0.82;87.16
78665;BME280;67981;51.022;-2.870;2023-02-28T03:50:27;102999.38;;;0.96;87.23
78665;BME280;67981;51.022;-2.870;2023-02-28T03:53:08;102989.22;;;0.96;86.22
78665;BME280;67981;51.022;-2.870;2023-02-28T03:55:43;102989.81;;;0.93;86.72
78665;BME280;67981;51.022;-2.870;2023-02-28T03:58:30;102986.38;;;0.93;87.04
78665;BME280;67981;51.022;-2.870;2023-02-28T04:01:15;102983.34;;;0.80;87.16
78665;BME280;67981;51.022;-2.870;2023-02-28T04:03:44;102985.78;;;0.87;86.79
78665;BME280;67981;51.022;-2.870;2023-02-28T04:06:15;102990.50;;;0.84;87.42
78665;BME280;67981;51.022;-2.870;2023-02-28T04:08:42;102984.25;;;0.89;86.50
78665;BME280;67981;51.022;-2.870;2023-02-28T04:11:17;102975.44;;;0.85;86.35
78665;BME280;67981;51.022;-2.870;2023-02-28T04:13:43;102984.72;;;0.85;87.26
78665;BME280;67981;51.022;-2.870;2023-02-28T04:16:09;102988.16;;;0.94;87.26
78665;BME280;67981;51.022;-2.870;2023-02-28T04:18:38;102993.88;;;1.00;86.78
78665;BME280;67981;51.022;-2.870;2023-02-28T04:21:05;102990.47;;;1.16;86.24
78665;BME280;67981;51.022;-2.870;2023-02-28T04:23:31;102967.88;;;1.11;85.50
78665;BME280;67981;51.022;-2.870;2023-02-28T04:25:56;102989.88;;;1.19;85.97
78665;BME280;67981;51.022;-2.870;2023-02-28T04:28:21;103008.25;;;1.08;86.05
78665;BME280;67981;51.022;-2.870;2023-02-28T04:30:47;103001.34;;;1.07;86.09
78665;BME280;67981;51.022;-2.870;2023-02-28T04:33:13;102984.28;;;0.97;85.60
78665;BME280;67981;51.022;-2.870;2023-02-28T04:35:38;102999.69;;;0.99;85.74
78665;BME280;67981;51.022;-2.870;2023-02-28T04:38:04;102976.78;;;0.82;86.00
78665;BME280;67981;51.022;-2.870;2023-02-28T04:40:29;102989.03;;;0.86;86.50
78665;BME280;67981;51.022;-2.870;2023-02-28T04:42:54;102963.28;;;0.66;86.68
78665;BME280;67981;51.022;-2.870;2023-02-28T04:45:20;102992.44;;;0.78;86.29
78665;BME280;67981;51.022;-2.870;2023-02-28T04:47:45;103000.09;;;0.86;86.92
78665;BME280;67981;51.022;-2.870;2023-02-28T04:50:11;103001.47;;;0.91;86.53
78665;BME280;67981;51.022;-2.870;2023-02-28T04:52:36;103006.16;;;1.12;86.14
78665;BME280;67981;51.022;-2.870;2023-02-28T04:55:01;103004.06;;;1.17;85.74
78665;BME280;67981;51.022;-2.870;2023-02-28T04:57:27;103004.66;;;1.14;85.50
78665;BME280;67981;51.022;-2.870;2023-02-28T04:59:52;103003.94;;;1.15;85.58
78665;BME280;67981;51.022;-2.870;2023-02-28T05:02:18;103012.47;;;1.16;85.57
78665;BME280;67981;51.022;-2.870;2023-02-28T05:04:43;103008.41;;;1.18;85.50
78665;BME280;67981;51.022;-2.870;2023-02-28T05:07:09;102992.69;;;1.13;85.08
78665;BME280;67981;51.022;-2.870;2023-02-28T05:09:35;103004.38;;;1.20;85.26
78665;BME280;67981;51.022;-2.870;2023-02-28T05:12:00;103013.94;;;1.14;85.30
78665;BME280;67981;51.022;-2.870;2023-02-28T05:14:26;103016.19;;;1.11;85.38
78665;BME280;67981;51.022;-2.870;2023-02-28T05:16:51;103019.59;;;1.11;85.52
78665;BME280;67981;51.022;-2.870;2023-02-28T05:19:17;103015.56;;;1.05;85.58
78665;BME280;67981;51.022;-2.870;2023-02-28T05:21:54;103019.47;;;1.10;85.03
78665;BME280;67981;51.022;-2.870;2023-02-28T05:24:20;103012.72;;;1.02;85.44
78665;BME280;67981;51.022;-2.870;2023-02-28T05:26:48;103033.84;;;1.09;85.53
78665;BME280;67981;51.022;-2.870;2023-02-28T05:29:14;103035.00;;;1.04;85.40
78665;BME280;67981;51.022;-2.870;2023-02-28T05:31:39;103034.56;;;1.00;85.58
78665;BME280;67981;51.022;-2.870;2023-02-28T05:34:05;103021.50;;;0.88;85.52
78665;BME280;67981;51.022;-2.870;2023-02-28T05:36:31;103037.81;;;0.99;85.50
78665;BME280;67981;51.022;-2.870;2023-02-28T05:38:56;103033.66;;;0.99;85.11
78665;BME280;67981;51.022;-2.870;2023-02-28T05:41:22;103040.50;;;1.00;85.05
78665;BME280;67981;51.022;-2.870;2023-02-28T05:43:48;103036.22;;;1.08;84.55
78665;BME280;67981;51.022;-2.870;2023-02-28T05:46:14;103035.44;;;1.00;84.70
78665;BME280;67981;51.022;-2.870;2023-02-28T05:48:41;103034.22;;;0.97;84.45
78665;BME280;67981;51.022;-2.870;2023-02-28T05:51:07;103049.47;;;0.97;84.44
78665;BME280;67981;51.022;-2.870;2023-02-28T05:53:33;103048.84;;;0.91;84.86
78665;BME280;67981;51.022;-2.870;2023-02-28T05:55:59;103060.50;;;0.80;84.95
78665;BME280;67981;51.022;-2.870;2023-02-28T05:58:26;103055.25;;;0.79;85.27
78665;BME280;67981;51.022;-2.870;2023-02-28T06:00:58;103008.03;;;0.48;85.50
78665;BME280;67981;51.022;-2.870;2023-02-28T06:03:24;103052.91;;;0.65;85.31
78665;BME280;67981;51.022;-2.870;2023-02-28T06:05:50;103045.00;;;0.62;85.22
78665;BME280;67981;51.022;-2.870;2023-02-28T06:08:16;103039.84;;;0.53;85.31
78665;BME280;67981;51.022;-2.870;2023-02-28T06:10:41;103049.28;;;0.54;84.93
78665;BME280;67981;51.022;-2.870;2023-02-28T06:13:06;103051.53;;;0.60;85.09
78665;BME280;67981;51.022;-2.870;2023-02-28T06:15:32;103050.34;;;0.56;84.69
78665;BME280;67981;51.022;-2.870;2023-02-28T06:17:57;103055.91;;;0.61;84.78
78665;BME280;67981;51.022;-2.870;2023-02-28T06:20:24;103056.47;;;0.58;84.67
78665;BME280;67981;51.022;-2.870;2023-02-28T06:22:51;103066.84;;;0.44;85.05
78665;BME280;67981;51.022;-2.870;2023-02-28T06:25:17;103059.34;;;0.37;85.02
78665;BME280;67981;51.022;-2.870;2023-02-28T06:27:43;103083.09;;;0.38;85.49
78665;BME280;67981;51.022;-2.870;2023-02-28T06:30:10;103058.09;;;0.25;85.85
78665;BME280;67981;51.022;-2.870;2023-02-28T06:32:36;103073.25;;;0.41;86.19
78665;BME280;67981;51.022;-2.870;2023-02-28T06:35:02;103069.78;;;0.32;85.66
78665;BME280;67981;51.022;-2.870;2023-02-28T06:37:28;103067.63;;;0.28;85.44
78665;BME280;67981;51.022;-2.870;2023-02-28T06:39:54;103060.78;;;0.27;85.97
78665;BME280;67981;51.022;-2.870;2023-02-28T06:42:22;103057.91;;;0.24;85.91
78665;BME280;67981;51.022;-2.870;2023-02-28T06:44:50;103043.16;;;0.28;85.29
78665;BME280;67981;51.022;-2.870;2023-02-28T06:47:16;103056.44;;;0.26;85.81
78665;BME280;67981;51.022;-2.870;2023-02-28T06:49:41;103044.94;;;0.29;85.53
78665;BME280;67981;51.022;-2.870;2023-02-28T06:52:06;103048.16;;;0.35;85.44
78665;BME280;67981;51.022;-2.870;2023-02-28T06:54:32;103045.63;;;0.44;84.79
78665;BME280;67981;51.022;-2.870;2023-02-28T06:56:58;103025.75;;;0.40;84.46
78665;BME280;67981;51.022;-2.870;2023-02-28T06:59:23;103018.69;;;0.29;85.15
78665;BME280;67981;51.022;-2.870;2023-02-28T07:01:49;103035.28;;;0.34;84.24
78665;BME280;67981;51.022;-2.870;2023-02-28T07:04:14;103053.94;;;0.34;84.58
78665;BME280;67981;51.022;-2.870;2023-02-28T07:06:40;103051.94;;;0.23;84.92
78665;BME280;67981;51.022;-2.870;2023-02-28T07:09:05;103063.38;;;0.35;85.48
78665;BME280;67981;51.022;-2.870;2023-02-28T07:11:31;103055.91;;;0.37;84.75
78665;BME280;67981;51.022;-2.870;2023-02-28T07:13:57;103054.91;;;0.43;84.47
78665;BME280;67981;51.022;-2.870;2023-02-28T07:16:23;103064.84;;;0.57;84.16
78665;BME280;67981;51.022;-2.870;2023-02-28T07:18:49;103059.97;;;0.67;83.97
78665;BME280;67981;51.022;-2.870;2023-02-28T07:21:17;103060.91;;;0.76;83.34
78665;BME280;67981;51.022;-2.870;2023-02-28T07:23:42;103058.09;;;0.82;82.90
78665;BME280;67981;51.022;-2.870;2023-02-28T07:26:12;103065.03;;;0.91;82.73
78665;BME280;67981;51.022;-2.870;2023-02-28T07:28:43;103075.03;;;0.98;82.68
78665;BME280;67981;51.022;-2.870;2023-02-28T07:31:09;103080.94;;;1.06;82.44
78665;BME280;67981;51.022;-2.870;2023-02-28T07:33:35;103083.94;;;1.10;82.27
78665;BME280;67981;51.022;-2.870;2023-02-28T07:36:08;103089.78;;;1.18;82.00
78665;BME280;67981;51.022;-2.870;2023-02-28T07:38:35;103086.41;;;1.34;81.66
78665;BME280;67981;51.022;-2.870;2023-02-28T07:41:01;103090.00;;;1.45;80.76
78665;BME280;67981;51.022;-2.870;2023-02-28T07:43:30;103092.41;;;1.52;80.63
78665;BME280;67981;51.022;-2.870;2023-02-28T07:45:56;103088.84;;;1.59;80.54
78665;BME280;67981;51.022;-2.870;2023-02-28T07:48:26;103093.19;;;1.68;80.47
78665;BME280;67981;51.022;-2.870;2023-02-28T07:50:55;103096.34;;;1.74;80.17
78665;BME280;67981;51.022;-2.870;2023-02-28T07:53:21;103093.22;;;1.77;80.34
78665;BME280;67981;51.022;-2.870;2023-02-28T07:55:47;103098.31;;;1.85;80.24
78665;BME280;67981;51.022;-2.870;2023-02-28T07:58:12;103109.56;;;2.04;79.83
78665;BME280;67981;51.022;-2.870;2023-02-28T08:00:38;103105.94;;;2.28;78.74
78665;BME280;67981;51.022;-2.870;2023-02-28T08:03:03;103102.34;;;2.26;78.96
78665;BME280;67981;51.022;-2.870;2023-02-28T08:05:28;103109.06;;;2.34;78.68
78665;BME280;67981;51.022;-2.870;2023-02-28T08:07:55;103114.78;;;2.40;78.27
78665;BME280;67981;51.022;-2.870;2023-02-28T08:10:20;103108.63;;;2.38;78.96
78665;BME280;67981;51.022;-2.870;2023-02-28T08:12:46;103103.97;;;2.34;78.41
78665;BME280;67981;51.022;-2.870;2023-02-28T08:15:11;103119.13;;;2.49;78.52
78665;BME280;67981;51.022;-2.870;2023-02-28T08:17:37;103106.09;;;2.46;78.21
78665;BME280;67981;51.022;-2.870;2023-02-28T08:20:02;103129.03;;;2.46;78.09
78665;BME280;67981;51.022;-2.870;2023-02-28T08:22:29;103116.88;;;2.52;77.34
78665;BME280;67981;51.022;-2.870;2023-02-28T08:24:54;103122.41;;;2.57;78.36
78665;BME280;67981;51.022;-2.870;2023-02-28T08:27:20;103125.03;;;2.84;77.23
78665;BME280;67981;51.022;-2.870;2023-02-28T08:29:45;103119.97;;;3.11;76.85
78665;BME280;67981;51.022;-2.870;2023-02-28T08:32:11;103120.72;;;3.19;77.80
78665;BME280;67981;51.022;-2.870;2023-02-28T08:34:39;103087.44;;;3.09;76.29
78665;BME280;67981;51.022;-2.870;2023-02-28T08:37:04;103129.06;;;3.35;76.56
78665;BME280;67981;51.022;-2.870;2023-02-28T08:39:30;103124.66;;;3.42;76.82
78665;BME280;67981;51.022;-2.870;2023-02-28T08:41:55;103107.88;;;3.36;76.95
78665;BME280;67981;51.022;-2.870;2023-02-28T08:44:20;103120.59;;;3.44;77.08
78665;BME280;67981;51.022;-2.870;2023-02-28T08:46:46;103115.25;;;3.33;76.94
78665;BME280;67981;51.022;-2.870;2023-02-28T08:49:11;103091.88;;;3.20;77.17
78665;BME280;67981;51.022;-2.870;2023-02-28T08:51:38;103125.97;;;3.47;76.26
78665;BME280;67981;51.022;-2.870;2023-02-28T08:54:04;103116.03;;;3.50;76.58
78665;BME280;67981;51.022;-2.870;2023-02-28T08:56:29;103118.47;;;3.49;76.06
78665;BME280;67981;51.022;-2.870;2023-02-28T08:58:56;103125.31;;;3.58;76.48
78665;BME280;67981;51.022;-2.870;2023-02-28T09:01:25;103119.44;;;3.59;76.37
78665;BME280;67981;51.022;-2.870;2023-02-28T09:03:51;103121.25;;;3.79;76.08
78665;BME280;67981;51.022;-2.870;2023-02-28T09:06:19;103111.28;;;3.72;76.49
78665;BME280;67981;51.022;-2.870;2023-02-28T09:08:45;103115.47;;;3.90;77.07
78665;BME280;67981;51.022;-2.870;2023-02-28T09:11:11;103123.13;;;3.90;77.07
78665;BME280;67981;51.022;-2.870;2023-02-28T09:13:37;103116.56;;;3.83;77.83
78665;BME280;67981;51.022;-2.870;2023-02-28T09:16:04;103129.41;;;3.75;78.21
78665;BME280;67981;51.022;-2.870;2023-02-28T09:18:30;103114.66;;;3.81;78.34
78665;BME280;67981;51.022;-2.870;2023-02-28T09:20:56;103115.13;;;3.95;78.74
78665;BME280;67981;51.022;-2.870;2023-02-28T09:23:23;103123.75;;;4.06;78.38
78665;BME280;67981;51.022;-2.870;2023-02-28T09:25:53;103123.84;;;4.16;79.09
78665;BME280;67981;51.022;-2.870;2023-02-28T09:28:20;103120.59;;;4.08;79.67
78665;BME280;67981;51.022;-2.870;2023-02-28T09:30:48;103120.31;;;4.24;79.81
78665;BME280;67981;51.022;-2.870;2023-02-28T09:33:14;103115.78;;;4.30;79.36
78665;BME280;67981;51.022;-2.870;2023-02-28T09:35:40;103102.16;;;4.21;78.80
78665;BME280;67981;51.022;-2.870;2023-02-28T09:38:06;103128.69;;;4.31;78.85
78665;BME280;67981;51.022;-2.870;2023-02-28T09:40:39;103131.13;;;4.40;79.41
78665;BME280;67981;51.022;-2.870;2023-02-28T09:43:12;103098.22;;;4.24;79.72
78665;BME280;67981;51.022;-2.870;2023-02-28T09:45:41;103108.19;;;4.50;80.11
78665;BME280;67981;51.022;-2.870;2023-02-28T09:48:15;103117.56;;;4.60;79.80
78665;BME280;67981;51.022;-2.870;2023-02-28T09:50:46;103110.28;;;4.64;80.53
78665;BME280;67981;51.022;-2.870;2023-02-28T09:53:29;103115.25;;;4.81;79.75
78665;BME280;67981;51.022;-2.870;2023-02-28T09:56:07;103116.81;;;4.89;79.33
78665;BME280;67981;51.022;-2.870;2023-02-28T09:58:44;103109.13;;;4.89;79.26
78665;BME280;67981;51.022;-2.870;2023-02-28T10:01:15;103114.44;;;5.21;78.54
78665;BME280;67981;51.022;-2.870;2023-02-28T10:04:13;103112.94;;;5.23;78.00
78665;BME280;67981;51.022;-2.870;2023-02-28T10:06:46;103106.38;;;5.16;78.44
78665;BME280;67981;51.022;-2.870;2023-02-28T10:11:43;103107.28;;;5.17;79.00
78665;BME280;67981;51.022;-2.870;2023-02-28T10:14:18;103098.22;;;5.40;78.15
78665;BME280;67981;51.022;-2.870;2023-02-28T10:17:06;103097.97;;;5.37;77.95
78665;BME280;67981;51.022;-2.870;2023-02-28T10:20:06;103089.28;;;5.45;77.84
78665;BME280;67981;51.022;-2.870;2023-02-28T10:22:43;103086.97;;;5.48;76.90
78665;BME280;67981;51.022;-2.870;2023-02-28T10:25:23;103082.50;;;5.66;76.62
78665;BME280;67981;51.022;-2.870;2023-02-28T10:27:50;103087.78;;;5.88;75.35
78665;BME280;67981;51.022;-2.870;2023-02-28T10:30:18;103081.75;;;5.97;75.58
78665;BME280;67981;51.022;-2.870;2023-02-28T10:32:49;103076.97;;;5.81;75.28
78665;BME280;67981;51.022;-2.870;2023-02-28T10:35:21;103077.00;;;5.61;75.86
78665;BME280;67981;51.022;-2.870;2023-02-28T10:37:55;103080.34;;;5.60;76.58
78665;BME280;67981;51.022;-2.870;2023-02-28T10:45:26;103054.59;;;5.89;74.44
78665;BME280;67981;51.022;-2.870;2023-02-28T10:47:56;103066.38;;;5.97;73.89
78665;BME280;67981;51.022;-2.870;2023-02-28T11:01:45;103071.72;;;6.00;75.21
78665;BME280;67981;51.022;-2.870;2023-02-28T11:07:21;103075.38;;;6.24;74.44
78665;BME280;67981;51.022;-2.870;2023-02-28T11:09:52;103076.38;;;6.36;74.16
78665;BME280;67981;51.022;-2.870;2023-02-28T11:12:27;103067.81;;;6.25;73.81
78665;BME280;67981;51.022;-2.870;2023-02-28T11:14:57;103075.56;;;6.15;73.91
78665;BME280;67981;51.022;-2.870;2023-02-28T11:17:26;103067.22;;;6.08;73.69
78665;BME280;67981;51.022;-2.870;2023-02-28T11:20:17;103075.56;;;6.15;73.01
78665;BME280;67981;51.022;-2.870;2023-02-28T11:22:45;103081.78;;;6.29;72.28
78665;BME280;67981;51.022;-2.870;2023-02-28T11:25:40;103074.22;;;6.30;71.02
78665;BME280;67981;51.022;-2.870;2023-02-28T11:28:26;103070.22;;;6.44;69.92
78665;BME280;67981;51.022;-2.870;2023-02-28T11:33:54;103063.41;;;6.76;68.30
78665;BME280;67981;51.022;-2.870;2023-02-28T11:36:25;103060.72;;;6.74;68.53
78665;BME280;67981;51.022;-2.870;2023-02-28T11:38:53;103057.97;;;6.83;66.11
78665;BME280;67981;51.022;-2.870;2023-02-28T11:46:47;103054.88;;;7.08;65.18
78665;BME280;67981;51.022;-2.870;2023-02-28T11:52:00;103052.97;;;7.39;64.54
78665;BME280;67981;51.022;-2.870;2023-02-28T12:00:06;103047.06;;;7.07;65.96
78665;BME280;67981;51.022;-2.870;2023-02-28T12:10:30;103043.34;;;6.82;66.78
78665;BME280;67981;51.022;-2.870;2023-02-28T12:13:16;103015.28;;;6.73;67.07
78665;BME280;67981;51.022;-2.870;2023-02-28T12:19:13;103024.78;;;7.29;66.61
78665;BME280;67981;51.022;-2.870;2023-02-28T12:24:38;103018.72;;;7.17;66.27
78665;BME280;67981;51.022;-2.870;2023-02-28T12:27:11;103011.84;;;7.28;65.81
78665;BME280;67981;51.022;-2.870;2023-02-28T12:32:20;102993.91;;;7.39;65.12
78665;BME280;67981;51.022;-2.870;2023-02-28T12:34:58;103000.38;;;7.57;63.46
78665;BME280;67981;51.022;-2.870;2023-02-28T12:37:43;103003.78;;;7.79;64.15
78665;BME280;67981;51.022;-2.870;2023-02-28T12:40:19;102995.50;;;7.72;63.37
78665;BME280;67981;51.022;-2.870;2023-02-28T12:42:49;102996.16;;;7.69;64.15
78665;BME280;67981;51.022;-2.870;2023-02-28T12:45:35;102993.38;;;7.66;64.26
78665;BME280;67981;51.022;-2.870;2023-02-28T12:48:07;102987.13;;;7.74;64.35
78665;BME280;67981;51.022;-2.870;2023-02-28T12:50:33;102971.25;;;7.68;64.01
78665;BME280;67981;51.022;-2.870;2023-02-28T12:53:38;102985.44;;;7.63;63.57
78665;BME280;67981;51.022;-2.870;2023-02-28T13:09:53;102949.34;;;7.96;62.97
78665;BME280;67981;51.022;-2.870;2023-02-28T13:12:19;102960.63;;;8.10;63.27
78665;BME280;67981;51.022;-2.870;2023-02-28T13:14:45;102953.78;;;8.10;62.37
78665;BME280;67981;51.022;-2.870;2023-02-28T13:17:14;102919.16;;;8.05;63.23
78665;BME280;67981;51.022;-2.870;2023-02-28T13:19:56;102942.66;;;8.57;63.52
78665;BME280;67981;51.022;-2.870;2023-02-28T13:24:53;102934.00;;;8.32;62.72
78665;BME280;67981;51.022;-2.870;2023-02-28T13:27:25;102939.38;;;8.12;64.71
78665;BME280;67981;51.022;-2.870;2023-02-28T13:29:56;102930.78;;;8.00;64.62
78665;BME280;67981;51.022;-2.870;2023-02-28T13:40:27;102929.25;;;7.68;65.37
78665;BME280;67981;51.022;-2.870;2023-02-28T13:42:53;102918.97;;;7.68;65.76
78665;BME280;67981;51.022;-2.870;2023-02-28T13:45:26;102923.53;;;7.83;65.52
78665;BME280;67981;51.022;-2.870;2023-02-28T13:47:54;102914.16;;;7.95;65.11
78665;BME280;67981;51.022;-2.870;2023-02-28T13:50:35;102915.00;;;8.07;63.42
78665;BME280;67981;51.022;-2.870;2023-02-28T13:55:50;102911.88;;;8.23;65.02
78665;BME280;67981;51.022;-2.870;2023-02-28T14:06:29;102889.69;;;7.89;65.40
78665;BME280;67981;51.022;-2.870;2023-02-28T14:09:00;102897.06;;;7.84;66.16
78665;BME280;67981;51.022;-2.870;2023-02-28T14:13:58;102887.13;;;7.66;66.01
78665;BME280;67981;51.022;-2.870;2023-02-28T14:16:26;102880.09;;;7.63;66.82
78665;BME280;67981;51.022;-2.870;2023-02-28T14:19:01;102871.06;;;7.57;67.28
78665;BME280;67981;51.022;-2.870;2023-02-28T14:21:34;102855.75;;;7.58;66.31
78665;BME280;67981;51.022;-2.870;2023-02-28T14:27:05;102868.16;;;8.11;63.78
78665;BME280;67981;51.022;-2.870;2023-02-28T14:30:03;102859.19;;;8.29;64.10
78665;BME280;67981;51.022;-2.870;2023-02-28T14:38:27;102837.97;;;8.45;59.60
78665;BME280;67981;51.022;-2.870;2023-02-28T14:40:56;102837.72;;;8.53;59.95
78665;BME280;67981;51.022;-2.870;2023-02-28T14:43:25;102844.19;;;8.60;60.95
78665;BME280;67981;51.022;-2.870;2023-02-28T14:45:57;102823.66;;;8.48;60.27
78665;BME280;67981;51.022;-2.870;2023-02-28T14:48:23;102826.72;;;8.56;61.33
78665;BME280;67981;51.022;-2.870;2023-02-28T14:50:53;102822.50;;;8.56;61.72
78665;BME280;67981;51.022;-2.870;2023-02-28T14:53:21;102817.28;;;8.43;62.59
78665;BME280;67981;51.022;-2.870;2023-02-28T14:55:48;102809.22;;;8.26;63.90
78665;BME280;67981;51.022;-2.870;2023-02-28T14:58:29;102806.91;;;8.06;64.30
78665;BME280;67981;51.022;-2.870;2023-02-28T15:00:58;102801.44;;;8.01;64.52
78665;BME280;67981;51.022;-2.870;2023-02-28T15:03:34;102798.13;;;8.15;64.38
78665;BME280;67981;51.022;-2.870;2023-02-28T15:06:13;102790.22;;;8.24;64.76
78665;BME280;67981;51.022;-2.870;2023-02-28T15:08:39;102788.84;;;8.17;64.74
78665;BME280;67981;51.022;-2.870;2023-02-28T15:14:05;102786.13;;;8.03;66.64
78665;BME280;67981;51.022;-2.870;2023-02-28T15:16:29;102782.09;;;8.06;67.29